Time;durP1;ratioP1;P1;durP2;ratioP2;P2;SDS_P1;SDS_P2;PMS_P1;PMS_P2;Temp;Humidity;BMP_temperature;BMP_pressure;BME280_temperature;BME280_humidity;BME280_pressure;Samples;Min_cycle;Max_cycle;Signal;HPM_P1;HPM_P2
2021/09/20 00:01:53;;;;;;;2.83;2.63;;;13.30;99.90;;;;;;5061485;28;20036;-80
2021/09/20 00:04:19;;;;;;;3.85;3.55;;;13.30;99.90;;;;;;5070413;28;20090;-80
2021/09/20 00:09:13;;;;;;;4.38;3.80;;;13.30;99.90;;;;;;5008616;28;20042;-84
2021/09/20 00:11:38;;;;;;;4.38;3.55;;;13.30;99.90;;;;;;4999210;28;20026;-83
2021/09/20 00:14:04;;;;;;;4.00;3.47;;;13.30;99.90;;;;;;5002082;28;20037;-84
2021/09/20 00:16:30;;;;;;;6.05;5.45;;;13.30;99.90;;;;;;5001891;28;20022;-83
2021/09/20 00:18:56;;;;;;;7.35;6.15;;;13.30;99.90;;;;;;5001168;28;20030;-83
2021/09/20 00:21:24;;;;;;;5.28;4.70;;;13.30;99.90;;;;;;5003994;28;20038;-84
2021/09/20 00:23:50;;;;;;;6.05;4.90;;;13.30;99.90;;;;;;5022909;28;20022;-83
2021/09/20 00:26:16;;;;;;;4.80;4.32;;;13.30;99.90;;;;;;5020779;28;20022;-83
2021/09/20 00:28:42;;;;;;;5.68;5.07;;;13.20;99.90;;;;;;5032331;28;20025;-84
2021/09/20 00:31:08;;;;;;;6.20;5.35;;;13.20;99.90;;;;;;5016469;28;20026;-84
2021/09/20 00:33:33;;;;;;;5.82;4.70;;;13.20;99.90;;;;;;5014340;28;20027;-83
2021/09/20 00:35:59;;;;;;;6.55;4.82;;;13.20;99.90;;;;;;5031544;28;20144;-84
2021/09/20 00:38:25;;;;;;;5.72;5.22;;;13.20;99.90;;;;;;5020797;28;20006;-83
2021/09/20 00:40:51;;;;;;;5.75;5.25;;;13.10;99.90;;;;;;5028065;28;20042;-85
2021/09/20 00:43:17;;;;;;;6.70;4.65;;;13.10;99.90;;;;;;5031826;28;20045;-82
2021/09/20 00:45:43;;;;;;;5.75;5.15;;;13.10;99.90;;;;;;5011898;28;20014;-84
2021/09/20 00:48:09;;;;;;;6.35;4.82;;;13.10;99.90;;;;;;5016057;28;20126;-83
2021/09/20 00:50:35;;;;;;;5.88;5.28;;;13.10;99.90;;;;;;5023009;28;20017;-85
2021/09/20 00:53:01;;;;;;;5.25;4.72;;;13.10;99.90;;;;;;5015700;28;20065;-85
2021/09/20 00:55:27;;;;;;;6.20;5.60;;;13.10;99.90;;;;;;5014609;28;20029;-84
2021/09/20 00:57:54;;;;;;;6.25;5.50;;;13.10;99.90;;;;;;5012075;28;20034;-83
2021/09/20 01:00:20;;;;;;;6.05;5.45;;;13.10;99.90;;;;;;4999130;28;20108;-83
2021/09/20 01:02:46;;;;;;;5.57;4.85;;;13.10;99.90;;;;;;4998579;28;20030;-84
2021/09/20 01:05:13;;;;;;;6.35;5.68;;;13.00;99.90;;;;;;5001496;28;20053;-82
2021/09/20 01:07:39;;;;;;;6.90;5.38;;;13.00;99.90;;;;;;4999477;28;20061;-85
2021/09/20 01:10:07;;;;;;;6.10;5.20;;;13.00;99.90;;;;;;5006042;28;20030;-83
2021/09/20 01:12:33;;;;;;;4.60;4.18;;;13.00;99.90;;;;;;5001587;28;20049;-82
2021/09/20 01:15:02;;;;;;;5.43;4.93;;;13.00;99.90;;;;;;5013332;28;20026;-84
2021/09/20 01:17:28;;;;;;;5.10;4.60;;;13.00;99.90;;;;;;5008154;28;20041;-84
2021/09/20 01:19:54;;;;;;;5.82;5.25;;;13.00;99.90;;;;;;5004540;28;20031;-84
2021/09/20 01:22:21;;;;;;;6.70;5.32;;;13.00;99.90;;;;;;5007910;28;20029;-85
2021/09/20 01:24:48;;;;;;;5.63;5.03;;;13.00;99.90;;;;;;5017900;28;20665;-83
2021/09/20 01:27:17;;;;;;;6.88;5.90;;;13.00;99.90;;;;;;5024444;28;20204;-83
2021/09/20 01:29:43;;;;;;;7.18;5.38;;;13.00;99.90;;;;;;5025310;28;20030;-84
2021/09/20 01:32:09;;;;;;;7.50;6.25;;;12.90;99.90;;;;;;5024957;28;20170;-83
2021/09/20 01:34:35;;;;;;;8.95;6.22;;;12.90;99.90;;;;;;5011697;28;20063;-83
2021/09/20 01:37:02;;;;;;;6.28;5.65;;;12.90;99.90;;;;;;5006118;28;20027;-83
2021/09/20 01:39:30;;;;;;;6.00;5.30;;;12.90;99.90;;;;;;5015858;28;20081;-84
2021/09/20 01:41:57;;;;;;;5.28;4.78;;;12.80;99.90;;;;;;5022286;28;20038;-84
2021/09/20 01:44:23;;;;;;;6.53;5.35;;;12.80;99.90;;;;;;5028084;28;20018;-83
2021/09/20 01:46:52;;;;;;;6.97;6.05;;;12.80;99.90;;;;;;5027244;28;20022;-85
2021/09/20 01:49:18;;;;;;;7.97;5.78;;;12.80;99.90;;;;;;5022738;28;20025;-84
2021/09/20 01:51:45;;;;;;;6.57;5.95;;;12.80;99.90;;;;;;5011650;28;20030;-84
2021/09/20 01:54:11;;;;;;;6.07;5.47;;;12.70;99.90;;;;;;5006581;28;20027;-83
2021/09/20 01:56:38;;;;;;;6.82;6.13;;;12.60;99.90;;;;;;5003620;28;20094;-85
2021/09/20 01:59:04;;;;;;;8.23;6.72;;;12.60;99.90;;;;;;5003912;28;20027;-82
2021/09/20 02:01:30;;;;;;;6.95;6.30;;;12.60;99.90;;;;;;5005105;28;20441;-84
2021/09/20 02:03:56;;;;;;;6.60;5.90;;;12.60;99.90;;;;;;5016228;28;20023;-84
2021/09/20 02:06:23;;;;;;;7.72;6.93;;;12.60;99.90;;;;;;5001153;28;20042;-83
2021/09/20 02:08:50;;;;;;;12.05;7.13;;;12.70;99.90;;;;;;5003072;28;20122;-84
2021/09/20 02:11:21;;;;;;;7.50;6.80;;;12.60;99.90;;;;;;5012945;28;20121;-83
2021/09/20 02:13:48;;;;;;;7.13;6.43;;;12.60;99.90;;;;;;5001950;28;20142;-85
2021/09/20 02:16:14;;;;;;;8.27;6.65;;;12.60;99.90;;;;;;5001246;28;20102;-83
2021/09/20 02:18:40;;;;;;;8.20;6.65;;;12.60;99.90;;;;;;5000897;28;20058;-83
2021/09/20 02:21:07;;;;;;;7.07;6.30;;;12.60;99.90;;;;;;5010677;28;20440;-84
2021/09/20 02:23:34;;;;;;;7.03;6.28;;;12.60;99.90;;;;;;5018929;28;20118;-84
2021/09/20 02:26:00;;;;;;;10.02;7.60;;;12.60;99.90;;;;;;5017314;28;20039;-82
2021/09/20 02:28:26;;;;;;;7.65;6.85;;;12.50;99.90;;;;;;4998882;28;20501;-84
2021/09/20 02:30:55;;;;;;;5.90;5.30;;;12.50;99.90;;;;;;4998811;28;20030;-82
2021/09/20 02:33:21;;;;;;;6.85;6.15;;;12.50;99.90;;;;;;5000390;28;20030;-82
2021/09/20 02:35:46;;;;;;;6.32;5.72;;;12.50;99.90;;;;;;4997813;28;20026;-82
2021/09/20 02:38:43;;;;;;;9.63;6.97;;;12.50;99.90;;;;;;4999638;28;20037;-84
2021/09/20 02:41:09;;;;;;;8.43;7.18;;;12.50;99.90;;;;;;5004515;28;20431;-82
2021/09/20 02:43:35;;;;;;;10.68;7.70;;;12.50;99.90;;;;;;4998098;28;20049;-83
2021/09/20 02:46:01;;;;;;;7.25;6.55;;;12.40;99.90;;;;;;4997078;28;20026;-82
2021/09/20 02:48:27;;;;;;;7.43;6.65;;;12.40;99.90;;;;;;4999068;28;20030;-83
2021/09/20 02:50:53;;;;;;;8.90;7.45;;;12.40;99.90;;;;;;5009679;28;20029;-83
2021/09/20 02:53:19;;;;;;;8.60;7.28;;;12.40;99.90;;;;;;5034266;28;20030;-83
2021/09/20 02:55:45;;;;;;;7.55;6.22;;;12.40;99.90;;;;;;5033583;28;20382;-83
2021/09/20 02:58:10;;;;;;;8.25;6.75;;;12.40;99.90;;;;;;5031180;28;20018;-82
2021/09/20 03:00:37;;;;;;;7.57;6.55;;;12.30;99.90;;;;;;5018914;28;20030;-82
2021/09/20 03:03:02;;;;;;;7.57;6.80;;;12.30;99.90;;;;;;5002143;28;20027;-83
2021/09/20 03:05:28;;;;;;;8.13;7.28;;;12.30;99.90;;;;;;5002885;28;20026;-83
2021/09/20 03:07:54;;;;;;;11.35;8.40;;;12.30;99.90;;;;;;5002248;28;20027;-83
2021/09/20 03:10:20;;;;;;;9.35;8.10;;;12.20;99.90;;;;;;5014323;28;20054;-82
2021/09/20 03:12:46;;;;;;;8.32;7.43;;;12.20;99.90;;;;;;4984709;28;20039;-83
2021/09/20 03:15:12;;;;;;;9.20;7.68;;;12.20;99.90;;;;;;4981364;28;20031;-83
2021/09/20 03:17:37;;;;;;;8.48;7.30;;;12.20;99.90;;;;;;4981760;28;20041;-83
2021/09/20 03:20:04;;;;;;;10.15;7.75;;;12.20;99.90;;;;;;5008673;28;20022;-84
2021/09/20 03:22:30;;;;;;;9.25;7.70;;;12.20;99.90;;;;;;5015528;28;20022;-85
2021/09/20 03:24:56;;;;;;;9.00;8.10;;;12.20;99.90;;;;;;5036873;28;20026;-85
2021/09/20 03:27:22;;;;;;;9.95;7.68;;;12.10;99.90;;;;;;5020654;28;20485;-84
2021/09/20 03:29:47;;;;;;;8.85;7.88;;;12.10;99.90;;;;;;5019059;28;20034;-84
2021/09/20 03:32:13;;;;;;;9.63;8.57;;;12.10;99.90;;;;;;5019175;28;20022;-84
2021/09/20 03:34:39;;;;;;;9.70;8.70;;;12.00;99.90;;;;;;5035403;28;20037;-83
2021/09/20 03:37:05;;;;;;;9.50;8.35;;;12.00;99.90;;;;;;5007966;28;20136;-83
2021/09/20 03:39:30;;;;;;;8.93;8.02;;;12.00;99.90;;;;;;5010802;28;20021;-85
2021/09/20 03:41:56;;;;;;;10.57;8.52;;;12.00;99.90;;;;;;5035857;28;20053;-85
2021/09/20 03:44:22;;;;;;;8.65;7.65;;;12.00;99.90;;;;;;5026802;28;20453;-84
2021/09/20 03:46:48;;;;;;;9.75;8.02;;;12.00;99.90;;;;;;5000875;28;20026;-84
2021/09/20 03:49:14;;;;;;;9.65;8.55;;;12.00;99.90;;;;;;4994794;28;20057;-83
2021/09/20 03:51:40;;;;;;;9.65;8.50;;;12.00;99.90;;;;;;5004798;28;20116;-85
2021/09/20 03:54:06;;;;;;;9.05;7.80;;;12.00;99.90;;;;;;5007327;28;20030;-85
2021/09/20 03:56:32;;;;;;;11.48;8.90;;;12.00;99.90;;;;;;5004774;28;20040;-85
2021/09/20 03:58:58;;;;;;;10.70;8.65;;;12.00;99.90;;;;;;5004310;28;20046;-83
2021/09/20 04:01:24;;;;;;;8.20;6.82;;;12.00;99.90;;;;;;5006328;28;20036;-82
2021/09/20 04:03:49;;;;;;;9.05;7.75;;;12.00;99.90;;;;;;5016672;28;20025;-82
2021/09/20 04:06:15;;;;;;;13.02;8.93;;;12.00;99.90;;;;;;5007549;28;20467;-84
2021/09/20 04:08:41;;;;;;;10.57;8.50;;;12.00;99.90;;;;;;5010212;28;20051;-80
2021/09/20 04:11:07;;;;;;;9.38;8.05;;;12.10;99.90;;;;;;5016642;28;20057;-80
2021/09/20 04:13:33;;;;;;;12.25;8.48;;;12.10;99.90;;;;;;5027587;28;20017;-79
2021/09/20 04:15:58;;;;;;;10.65;9.20;;;12.00;99.90;;;;;;5026862;28;20078;-79
2021/09/20 04:18:27;;;;;;;9.95;8.25;;;12.00;99.90;;;;;;5025698;28;20080;-79
2021/09/20 04:20:54;;;;;;;12.27;8.15;;;11.90;99.90;;;;;;5015350;28;20032;-79
2021/09/20 04:23:22;;;;;;;9.50;7.72;;;11.90;99.90;;;;;;5009732;28;20030;-78
2021/09/20 04:25:49;;;;;;;9.50;7.15;;;12.00;99.90;;;;;;5009736;28;20019;-79
2021/09/20 04:28:15;;;;;;;9.00;7.75;;;12.00;99.90;;;;;;5009046;28;20045;-79
2021/09/20 04:30:43;;;;;;;10.70;8.70;;;12.00;99.90;;;;;;5009306;28;20400;-79
2021/09/20 04:33:14;;;;;;;10.15;8.82;;;12.00;99.90;;;;;;5007250;28;20030;-78
2021/09/20 04:35:41;;;;;;;13.48;9.57;;;12.00;99.90;;;;;;5008961;28;20018;-79
2021/09/20 04:38:08;;;;;;;9.88;8.00;;;11.90;99.90;;;;;;5010411;28;20014;-79
2021/09/20 04:40:36;;;;;;;9.02;8.13;;;11.90;99.90;;;;;;5024920;28;20026;-78
2021/09/20 04:43:03;;;;;;;10.45;7.97;;;11.90;99.90;;;;;;5027817;28;20080;-79
2021/09/20 04:45:29;;;;;;;9.15;7.55;;;12.00;99.90;;;;;;5027044;28;20096;-83
2021/09/20 04:48:43;;;;;;;10.25;9.15;;;12.00;99.90;;;;;;5020306;28;20022;-84
2021/09/20 05:01:54;;;;;;;10.55;9.45;;;11.90;99.90;;;;;;5000552;28;20041;-84
2021/09/20 05:12:25;;;;;;;9.63;7.47;;;11.90;99.90;;;;;;5004161;28;20097;-85
2021/09/20 05:15:32;;;;;;;9.35;8.13;;;12.00;99.90;;;;;;4900634;29;20494;-86
2021/09/20 05:18:46;;;;;;;11.55;8.55;;;12.00;99.90;;;;;;4901920;29;20079;-86
2021/09/20 05:22:01;;;;;;;11.40;8.95;;;11.90;99.90;;;;;;4920014;29;20051;-86
2021/09/20 05:24:28;;;;;;;10.20;9.07;;;12.00;99.90;;;;;;4923010;29;20059;-86
2021/09/20 05:26:54;;;;;;;10.82;8.75;;;11.90;99.90;;;;;;4923472;29;20064;-85
2021/09/20 05:29:20;;;;;;;10.40;8.75;;;12.00;99.90;;;;;;4946073;28;20035;-85
2021/09/20 05:31:46;;;;;;;10.68;9.57;;;12.00;99.90;;;;;;5004475;28;20476;-86
2021/09/20 05:34:12;;;;;;;12.90;9.88;;;12.00;99.90;;;;;;5001439;28;20649;-86
2021/09/20 05:36:37;;;;;;;12.85;9.85;;;11.90;99.90;;;;;;5001751;28;20489;-86
2021/09/20 05:39:03;;;;;;;11.30;8.35;;;11.90;99.90;;;;;;5008083;28;20041;-85
2021/09/20 05:41:29;;;;;;;11.90;8.43;;;12.00;99.90;;;;;;4997199;28;20026;-84
2021/09/20 05:43:55;;;;;;;11.77;8.85;;;12.00;99.90;;;;;;4997190;28;20030;-84
2021/09/20 05:46:21;;;;;;;16.73;9.73;;;11.90;99.90;;;;;;4990258;28;20081;-87
2021/09/20 05:48:50;;;;;;;10.80;9.63;;;11.90;99.90;;;;;;4998169;28;20035;-85
2021/09/20 05:51:32;;;;;;;13.35;9.25;;;11.90;99.90;;;;;;5009856;28;20089;-86
2021/09/20 05:57:19;;;;;;;13.90;10.10;;;11.90;99.90;;;;;;5015179;28;20053;-86
2021/09/20 06:03:13;;;;;;;11.80;9.50;;;11.90;99.90;;;;;;5001745;28;20065;-85
2021/09/20 06:09:29;;;;;;;14.83;9.70;;;12.00;99.90;;;;;;5707402;22;20103;-84
2021/09/20 06:12:03;;;;;;;12.52;9.63;;;12.00;99.90;;;;;;5067371;28;20093;-83
2021/09/20 06:14:29;;;;;;;11.10;9.45;;;12.00;99.90;;;;;;5049879;28;20069;-86
2021/09/20 06:16:56;;;;;;;10.55;8.90;;;12.00;99.90;;;;;;5050317;28;20026;-84
2021/09/20 06:19:21;;;;;;;9.93;8.55;;;12.10;99.90;;;;;;5069065;28;20029;-85
2021/09/20 06:21:47;;;;;;;9.20;7.90;;;12.10;99.90;;;;;;5070517;28;20110;-83
2021/09/20 06:24:13;;;;;;;9.55;7.85;;;12.20;99.90;;;;;;5074439;28;20029;-84
2021/09/20 06:26:39;;;;;;;10.38;8.77;;;12.20;99.90;;;;;;5076095;28;20045;-88
2021/09/20 06:29:05;;;;;;;13.27;10.02;;;12.20;99.90;;;;;;5074825;28;20025;-86
2021/09/20 06:31:30;;;;;;;12.55;9.82;;;12.20;99.90;;;;;;5076579;28;20025;-86
2021/09/20 06:33:56;;;;;;;11.27;9.00;;;12.20;99.90;;;;;;5075620;28;20041;-88
2021/09/20 06:36:22;;;;;;;9.30;8.25;;;12.20;99.90;;;;;;5078658;28;20532;-89
2021/09/20 06:38:48;;;;;;;11.35;9.65;;;12.20;99.90;;;;;;5075508;28;20631;-86
2021/09/20 06:41:17;;;;;;;11.60;9.18;;;12.30;99.90;;;;;;5074825;28;20056;-86
2021/09/20 06:43:45;;;;;;;10.82;8.75;;;12.30;99.90;;;;;;5074656;28;20012;-87
2021/09/20 06:46:16;;;;;;;13.38;9.30;;;12.30;99.90;;;;;;5076164;28;20059;-88
2021/09/20 06:48:42;;;;;;;10.35;9.25;;;12.40;99.90;;;;;;5076490;28;20021;-88
2021/09/20 06:51:09;;;;;;;11.20;9.23;;;12.40;99.90;;;;;;5076215;28;20041;-87
2021/09/20 06:53:35;;;;;;;11.55;9.02;;;12.40;99.90;;;;;;5075908;28;20477;-85
2021/09/20 06:56:01;;;;;;;11.43;9.77;;;12.30;99.90;;;;;;5076308;28;20025;-87
2021/09/20 07:57:20;;;;;;;13.15;11.20;;;12.60;99.90;;;;;;1276092;22;20320;-85
2021/09/20 08:00:03;;;;;;;12.05;9.77;;;12.70;99.90;;;;;;5057311;28;20032;-84
2021/09/20 08:03:42;;;;;;;13.55;10.98;;;12.60;99.90;;;;;;5089304;28;20029;-86
2021/09/20 08:10:45;;;;;;;11.48;9.38;;;12.50;99.90;;;;;;5024360;28;20052;-86
2021/09/20 08:13:15;;;;;;;11.55;9.30;;;12.50;99.90;;;;;;5011432;28;20104;-86
2021/09/20 08:15:43;;;;;;;11.95;9.93;;;12.50;99.90;;;;;;5007534;28;20056;-84
2021/09/20 08:18:18;;;;;;;10.18;9.10;;;12.50;99.90;;;;;;5052718;28;20072;-88
2021/09/20 08:20:45;;;;;;;9.63;8.25;;;12.50;99.90;;;;;;5058646;28;20397;-88
2021/09/20 08:23:13;;;;;;;9.88;8.55;;;12.70;99.90;;;;;;5051233;28;20037;-85
2021/09/20 08:25:39;;;;;;;11.27;8.15;;;12.80;99.90;;;;;;5052552;28;20416;-85
2021/09/20 08:44:16;;;;;;;6.00;5.28;;;14.20;99.00;;;;;;3403540;26;20040;-86
2021/09/20 08:47:13;;;;;;;6.68;5.30;;;14.60;97.10;;;;;;5070855;28;20081;-85
2021/09/20 08:49:44;;;;;;;6.07;4.90;;;14.80;95.20;;;;;;5060292;28;20047;-85
2021/09/20 08:52:10;;;;;;;5.25;4.75;;;14.90;94.60;;;;;;5064222;28;20083;-86
2021/09/20 08:54:37;;;;;;;7.78;5.80;;;14.90;93.90;;;;;;5047702;28;20052;-85
2021/09/20 08:57:03;;;;;;;8.38;6.53;;;15.00;93.40;;;;;;5048307;28;20088;-86
2021/09/20 08:59:30;;;;;;;6.75;5.75;;;14.90;93.00;;;;;;5069404;28;20055;-89
2021/09/20 09:01:57;;;;;;;6.80;6.10;;;14.80;93.30;;;;;;5074500;28;20025;-87
2021/09/20 09:04:44;;;;;;;;;;;;;;;;;;;;;
2021/09/20 09:07:21;;;;;;;4.80;4.40;;;15.30;92.30;;;;;;5092654;28;20036;-87
2021/09/20 09:09:56;;;;;;;4.45;4.05;;;15.70;91.60;;;;;;5072265;28;20036;-86
2021/09/20 09:12:30;;;;;;;5.72;5.13;;;16.10;91.10;;;;;;5077647;28;20024;-87
2021/09/20 09:14:58;;;;;;;5.22;4.68;;;16.30;90.40;;;;;;5074534;28;20016;-86
2021/09/20 09:17:26;;;;;;;5.50;5.00;;;16.60;89.20;;;;;;5077457;28;20088;-86
2021/09/20 09:19:59;;;;;;;4.90;4.47;;;16.80;87.20;;;;;;5098048;22;20079;-89
2021/09/20 09:22:47;;;;;;;5.55;4.90;;;17.10;85.00;;;;;;5087705;28;20037;-86
2021/09/20 09:25:22;;;;;;;5.25;4.75;;;17.50;82.60;;;;;;5092172;28;20033;-86
2021/09/20 09:28:11;;;;;;;3.83;3.50;;;17.90;80.50;;;;;;5088658;28;20052;-88
2021/09/20 09:31:39;;;;;;;4.85;4.45;;;18.10;78.20;;;;;;5037807;28;20049;-88
2021/09/20 09:34:23;;;;;;;4.15;3.75;;;18.20;77.20;;;;;;4996431;28;20043;-87
2021/09/20 09:37:32;;;;;;;5.63;5.03;;;18.40;77.00;;;;;;5017272;28;20064;-88
2021/09/20 09:41:27;;;;;;;5.40;4.85;;;18.50;75.20;;;;;;5025363;28;20343;-86
2021/09/20 09:44:46;;;;;;;7.75;6.95;;;18.50;75.50;;;;;;5007324;28;20026;-89
2021/09/20 09:58:22;;;;;;;5.35;4.85;;;17.80;75.60;;;;;;4896117;29;20584;-87
2021/09/20 10:01:26;;;;;;;7.32;5.78;;;18.00;75.60;;;;;;4904830;29;20121;-86
2021/09/20 10:05:17;;;;;;;4.82;4.43;;;18.10;74.40;;;;;;4959691;28;20011;-86
2021/09/20 11:03:45;;;;;;;6.60;5.45;;;18.50;68.60;;;;;;5008333;28;20427;-85
2021/09/20 11:20:54;;;;;;;5.95;3.95;;;17.10;69.00;;;;;;4949588;29;20030;-86
2021/09/20 11:27:40;;;;;;;3.08;2.88;;;16.50;71.60;;;;;;4909478;29;20415;-87
2021/09/20 11:30:09;;;;;;;3.75;3.40;;;16.40;72.10;;;;;;4920125;29;20039;-87
2021/09/20 12:21:57;;;;;;;8.57;6.63;;;15.90;77.60;;;;;;1494156;26;20053;-85
2021/09/20 12:24:23;;;;;;;7.80;6.63;;;16.10;76.80;;;;;;5034124;28;20025;-86
2021/09/20 12:26:49;;;;;;;8.35;6.55;;;16.40;76.00;;;;;;5048453;28;20113;-85
2021/09/20 12:29:28;;;;;;;8.52;7.57;;;16.50;75.20;;;;;;5031375;28;20041;-90
2021/09/20 12:32:02;;;;;;;7.20;6.43;;;16.60;74.60;;;;;;5036480;28;20418;-87
2021/09/20 12:34:34;;;;;;;7.38;6.53;;;16.60;75.60;;;;;;5009172;28;20159;-85
2021/09/20 12:37:02;;;;;;;8.30;7.23;;;16.70;73.80;;;;;;5006807;28;20022;-88
2021/09/20 12:39:32;;;;;;;8.07;6.80;;;16.60;73.40;;;;;;5060258;28;20279;-86
2021/09/20 12:42:07;;;;;;;6.93;6.15;;;16.50;74.10;;;;;;5046257;28;20062;-87
2021/09/20 12:44:44;;;;;;;8.70;6.05;;;16.50;75.10;;;;;;5044880;28;20025;-86
2021/09/20 12:47:14;;;;;;;7.13;5.55;;;16.80;74.20;;;;;;5038942;28;20033;-85
2021/09/20 12:49:42;;;;;;;5.30;4.80;;;17.00;73.40;;;;;;5026601;28;20394;-87
2021/09/20 12:52:44;;;;;;;8.02;7.22;;;17.20;73.50;;;;;;5041576;28;20021;-86
2021/09/20 12:55:37;;;;;;;9.73;6.72;;;17.40;71.30;;;;;;5023313;28;20025;-86
2021/09/20 12:59:04;;;;;;;8.30;6.50;;;17.50;71.10;;;;;;4997114;28;20050;-86
2021/09/20 13:05:30;;;;;;;6.35;5.75;;;17.80;70.90;;;;;;4969261;28;20118;-87
2021/09/20 13:12:23;;;;;;;7.72;6.78;;;18.10;69.90;;;;;;4958249;29;20094;-85
2021/09/20 13:15:03;;;;;;;7.00;5.50;;;18.40;67.50;;;;;;4958335;29;20524;-87
2021/09/20 13:18:27;;;;;;;6.20;4.60;;;18.40;67.40;;;;;;4958115;29;20035;-85
2021/09/20 13:21:31;;;;;;;7.13;5.53;;;18.50;67.70;;;;;;5027170;28;20082;-85
2021/09/20 13:54:41;;;;;;;5.18;4.28;;;17.60;70.30;;;;;;5060454;28;20082;-88
2021/09/20 14:01:13;;;;;;;5.72;5.22;;;17.60;68.20;;;;;;5060420;28;20551;-86
2021/09/20 14:03:43;;;;;;;5.43;4.57;;;17.20;69.40;;;;;;5061354;28;20059;-85
2021/09/20 14:06:08;;;;;;;6.80;4.50;;;17.10;69.20;;;;;;5064515;28;20056;-81
2021/09/20 14:12:52;;;;;;;4.75;4.00;;;17.00;68.70;;;;;;5036205;28;20036;-88
2021/09/20 14:16:00;;;;;;;4.78;4.38;;;17.10;69.50;;;;;;5023833;28;20126;-88
2021/09/20 14:19:05;;;;;;;4.53;3.47;;;17.00;68.00;;;;;;5017136;28;20030;-87
2021/09/20 14:21:38;;;;;;;4.07;3.65;;;17.30;68.50;;;;;;5005484;28;20038;-88
2021/09/20 14:24:04;;;;;;;6.95;5.68;;;17.80;67.80;;;;;;5024341;28;20034;-88
2021/09/20 14:34:10;;;;;;;6.03;4.82;;;17.60;67.70;;;;;;5005259;28;20040;-88
2021/09/20 14:36:36;;;;;;;5.80;4.88;;;17.50;67.70;;;;;;5010325;28;20632;-87
2021/09/20 14:58:06;;;;;;;8.80;5.82;;;16.50;71.50;;;;;;5118650;23;20121;-88
2021/09/20 15:00:36;;;;;;;4.43;4.03;;;16.60;70.90;;;;;;5034989;28;20026;-87
2021/09/20 15:03:10;;;;;;;5.32;4.15;;;16.70;71.10;;;;;;5018619;28;20138;-86
2021/09/20 15:05:36;;;;;;;4.10;3.75;;;16.80;70.60;;;;;;5032738;28;20037;-84
2021/09/20 15:08:01;;;;;;;3.78;3.47;;;17.00;70.50;;;;;;5033205;28;20034;-82
2021/09/20 15:10:35;;;;;;;4.95;4.35;;;17.00;70.20;;;;;;5042521;28;20021;-87
2021/09/20 15:13:06;;;;;;;4.68;3.83;;;17.20;69.50;;;;;;5053414;28;20017;-86
2021/09/20 15:15:32;;;;;;;4.93;4.45;;;17.20;69.30;;;;;;5033019;28;20037;-87
2021/09/20 15:17:58;;;;;;;4.38;3.97;;;17.10;68.10;;;;;;5047552;28;20057;-89
2021/09/20 15:20:32;;;;;;;5.05;4.18;;;17.00;68.50;;;;;;5042392;28;20045;-87
2021/09/20 15:23:23;;;;;;;7.57;5.05;;;16.90;68.80;;;;;;5000694;28;20037;-88
2021/09/20 15:25:49;;;;;;;5.90;5.30;;;16.70;68.90;;;;;;5016839;28;20605;-87
2021/09/20 15:28:16;;;;;;;5.28;4.53;;;16.50;69.40;;;;;;5018428;28;20277;-89
2021/09/20 15:30:44;;;;;;;4.22;3.72;;;16.40;70.60;;;;;;5001360;28;20026;-89
2021/09/20 15:33:10;;;;;;;4.50;4.10;;;16.30;71.60;;;;;;5018240;28;20026;-87
2021/09/20 15:35:36;;;;;;;4.32;3.92;;;16.20;71.90;;;;;;5019674;28;20022;-87
2021/09/20 15:38:02;;;;;;;4.60;4.07;;;16.20;72.10;;;;;;5021901;28;20038;-86
2021/09/20 15:40:28;;;;;;;4.45;4.00;;;16.20;72.50;;;;;;5021774;28;20030;-87
2021/09/20 15:42:56;;;;;;;3.92;3.63;;;16.40;72.50;;;;;;5021508;28;20057;-87
2021/09/20 15:45:29;;;;;;;3.92;3.53;;;16.50;71.50;;;;;;5021707;28;20022;-88
2021/09/20 15:47:55;;;;;;;4.10;3.70;;;16.60;71.10;;;;;;5019309;28;20101;-87
2021/09/20 15:50:29;;;;;;;5.40;4.72;;;16.80;70.70;;;;;;5030179;28;20025;-87
2021/09/20 15:53:00;;;;;;;4.72;4.22;;;16.80;70.10;;;;;;5035733;28;20026;-85
2021/09/20 15:55:26;;;;;;;4.32;3.92;;;16.60;70.00;;;;;;5015554;28;20077;-87
2021/09/20 15:57:52;;;;;;;4.35;3.95;;;16.20;70.70;;;;;;5016127;28;20134;-87
2021/09/20 16:00:19;;;;;;;4.43;4.03;;;15.90;71.80;;;;;;5033577;28;20080;-88
2021/09/20 16:02:45;;;;;;;4.10;3.70;;;15.70;72.40;;;;;;5016182;28;20036;-87
2021/09/20 16:05:11;;;;;;;4.78;4.00;;;15.50;73.40;;;;;;5033562;28;20030;-86
2021/09/20 16:07:38;;;;;;;6.70;4.10;;;15.40;74.20;;;;;;5015789;28;20113;-87
2021/09/20 16:10:06;;;;;;;4.85;4.18;;;15.20;74.90;;;;;;5026764;28;20077;-87
2021/09/20 16:12:32;;;;;;;4.38;3.97;;;15.10;75.70;;;;;;5036435;28;20118;-87
2021/09/20 16:14:58;;;;;;;5.00;4.38;;;15.00;76.40;;;;;;5034317;28;20079;-87
2021/09/20 16:17:25;;;;;;;4.30;3.90;;;14.90;76.70;;;;;;5014916;28;20093;-87
2021/09/20 16:19:51;;;;;;;4.47;3.92;;;14.90;77.20;;;;;;5042063;28;20037;-86
2021/09/20 16:22:17;;;;;;;5.22;3.80;;;14.90;77.50;;;;;;5034999;28;20079;-87
2021/09/20 16:24:43;;;;;;;4.50;4.03;;;14.90;77.80;;;;;;5036269;28;20010;-87
2021/09/20 16:27:11;;;;;;;3.85;3.30;;;14.80;78.10;;;;;;5032725;28;20037;-87
2021/09/20 16:29:40;;;;;;;4.03;3.63;;;14.80;78.20;;;;;;5019581;28;20037;-87
2021/09/20 16:32:07;;;;;;;3.97;3.55;;;14.70;78.30;;;;;;4994510;28;20038;-87
2021/09/20 16:34:33;;;;;;;4.88;4.00;;;14.70;78.80;;;;;;4995432;28;20041;-87
2021/09/20 16:37:00;;;;;;;4.10;3.67;;;14.60;79.20;;;;;;5008795;28;20138;-88
2021/09/20 16:39:26;;;;;;;4.75;4.30;;;14.50;79.30;;;;;;5021854;28;20089;-86
2021/09/20 16:41:52;;;;;;;5.05;4.43;;;14.50;79.40;;;;;;5010177;28;20034;-85
2021/09/20 16:44:17;;;;;;;5.90;4.25;;;14.40;80.00;;;;;;5027120;28;20022;-85
2021/09/20 16:46:46;;;;;;;4.78;3.72;;;14.40;80.80;;;;;;5049714;28;20105;-85
2021/09/20 16:49:12;;;;;;;3.80;3.42;;;14.30;81.30;;;;;;5034329;28;20029;-86
2021/09/20 16:51:38;;;;;;;5.35;4.22;;;14.30;81.90;;;;;;5036629;28;20034;-85
2021/09/20 16:54:03;;;;;;;5.35;4.80;;;14.30;82.20;;;;;;5013754;28;20042;-86
2021/09/20 16:56:29;;;;;;;5.70;4.82;;;14.20;82.50;;;;;;5027189;28;20041;-86
2021/09/20 16:58:55;;;;;;;5.47;4.85;;;14.20;82.90;;;;;;5025870;28;20025;-86
2021/09/20 17:01:22;;;;;;;6.07;5.03;;;14.10;84.00;;;;;;5031903;28;20064;-86
2021/09/20 17:03:48;;;;;;;5.97;4.82;;;14.10;84.00;;;;;;5007309;28;20565;-83
2021/09/20 17:06:14;;;;;;;4.13;3.50;;;14.00;84.30;;;;;;5030454;28;20101;-85
2021/09/20 17:08:40;;;;;;;4.15;3.80;;;13.90;84.60;;;;;;5018058;28;20029;-84
2021/09/20 17:11:06;;;;;;;7.07;5.45;;;13.90;85.00;;;;;;5041282;28;20473;-83
2021/09/20 17:13:32;;;;;;;6.65;5.18;;;13.80;85.90;;;;;;5053950;28;20037;-84
2021/09/20 17:15:58;;;;;;;6.28;4.78;;;13.70;86.70;;;;;;5038375;28;20033;-84
2021/09/20 17:18:23;;;;;;;7.85;4.72;;;13.70;86.70;;;;;;5054716;28;20021;-84
2021/09/20 17:20:49;;;;;;;5.65;4.75;;;13.60;87.30;;;;;;5052139;28;20134;-84
2021/09/20 17:23:17;;;;;;;5.40;4.90;;;13.50;87.90;;;;;;5036895;28;20134;-83
2021/09/20 17:25:44;;;;;;;5.43;4.28;;;13.40;88.70;;;;;;5036123;28;20026;-82
2021/09/20 17:28:11;;;;;;;4.68;4.18;;;13.30;89.50;;;;;;5034931;28;20014;-82
2021/09/20 17:30:38;;;;;;;5.20;4.28;;;13.20;90.10;;;;;;5020435;28;20018;-83
2021/09/20 17:33:05;;;;;;;4.90;4.20;;;13.10;90.40;;;;;;5001416;28;20476;-84
2021/09/20 17:35:32;;;;;;;6.15;5.00;;;13.10;90.70;;;;;;5020056;28;20103;-86
2021/09/20 17:38:01;;;;;;;6.35;4.75;;;13.00;91.00;;;;;;5020255;28;20045;-84
2021/09/20 17:40:29;;;;;;;5.75;4.53;;;13.00;91.10;;;;;;5030047;28;20018;-84
2021/09/20 17:42:55;;;;;;;4.75;4.35;;;12.90;91.30;;;;;;5041712;28;20037;-85
2021/09/20 17:45:22;;;;;;;5.20;4.68;;;12.90;91.60;;;;;;5024922;28;20048;-86
2021/09/20 17:47:48;;;;;;;5.82;5.00;;;12.90;91.80;;;;;;4989805;28;20029;-85
2021/09/20 17:50:16;;;;;;;5.95;5.28;;;12.80;91.90;;;;;;5041412;28;20040;-85
2021/09/20 17:52:42;;;;;;;7.57;4.55;;;12.80;92.00;;;;;;5045534;28;20097;-85
2021/09/20 17:55:10;;;;;;;5.07;4.28;;;12.70;92.20;;;;;;5030320;28;20029;-86
2021/09/20 17:57:37;;;;;;;6.20;4.20;;;12.70;92.40;;;;;;4990337;28;20091;-85
2021/09/20 18:00:07;;;;;;;5.10;4.60;;;12.70;92.50;;;;;;4997263;28;20030;-86
2021/09/20 18:02:33;;;;;;;6.47;4.78;;;12.60;92.70;;;;;;4990027;28;20027;-87
2021/09/20 18:04:58;;;;;;;4.85;4.35;;;12.60;92.90;;;;;;4988394;28;20020;-88
2021/09/20 18:07:24;;;;;;;7.32;4.88;;;12.60;93.20;;;;;;4988759;28;20037;-87
2021/09/20 18:09:50;;;;;;;5.10;4.57;;;12.50;93.40;;;;;;5021319;28;20084;-87
2021/09/20 18:12:16;;;;;;;7.35;4.85;;;12.50;93.70;;;;;;5000223;28;20406;-87
2021/09/20 18:14:42;;;;;;;6.15;4.85;;;12.40;94.00;;;;;;5019941;28;20034;-87
2021/09/20 18:17:08;;;;;;;4.50;3.95;;;12.40;94.30;;;;;;5018140;28;20101;-88
2021/09/20 18:19:35;;;;;;;6.85;4.05;;;12.30;94.60;;;;;;4988100;28;20022;-87
2021/09/20 18:22:02;;;;;;;4.85;3.42;;;12.30;94.90;;;;;;5008634;28;20060;-88
2021/09/20 18:24:28;;;;;;;5.93;3.80;;;12.30;95.10;;;;;;5010640;28;20084;-85